Time;durP1;ratioP1;P1;durP2;ratioP2;P2;SDS_P1;SDS_P2;PMS_P1;PMS_P2;Temp;Humidity;BMP_temperature;BMP_pressure;BME280_temperature;BME280_humidity;BME280_pressure;Samples;Min_cycle;Max_cycle;Signal;HPM_P1;HPM_P2
2022/07/14 00:01:30;;;;;;;6.93;2.63;;;14.20;99.90;;;;;;5034384;28;20491;-80
2022/07/14 00:03:56;;;;;;;5.97;2.40;;;14.20;99.90;;;;;;5049944;28;20044;-80
2022/07/14 00:06:22;;;;;;;10.27;2.90;;;14.20;99.90;;;;;;5001363;28;20039;-81
2022/07/14 00:08:47;;;;;;;8.63;2.40;;;14.20;99.90;;;;;;5033419;28;20543;-81
2022/07/14 00:11:13;;;;;;;9.15;2.58;;;14.20;99.90;;;;;;5036414;28;20584;-80
2022/07/14 00:13:39;;;;;;;10.30;2.60;;;14.30;99.90;;;;;;5036390;28;20040;-81
2022/07/14 00:16:05;;;;;;;9.63;2.63;;;14.30;99.90;;;;;;5020097;28;20182;-81
2022/07/14 00:18:31;;;;;;;8.60;2.60;;;14.30;99.90;;;;;;5028267;28;20131;-81
2022/07/14 00:20:57;;;;;;;7.00;2.75;;;14.20;99.90;;;;;;5023748;28;20156;-80
2022/07/14 00:23:25;;;;;;;10.98;2.58;;;14.20;99.90;;;;;;5025610;28;20040;-80
2022/07/14 00:25:51;;;;;;;8.32;2.58;;;14.20;99.90;;;;;;5034283;28;20033;-80
2022/07/14 00:28:17;;;;;;;9.52;2.83;;;14.00;99.90;;;;;;5066987;28;20051;-81
2022/07/14 00:30:45;;;;;;;11.65;2.90;;;14.00;99.90;;;;;;5053230;28;20040;-81
2022/07/14 00:33:10;;;;;;;8.70;2.65;;;14.00;99.90;;;;;;5041474;28;20041;-81
2022/07/14 00:35:37;;;;;;;8.82;3.20;;;14.00;99.90;;;;;;5035816;28;20094;-80
2022/07/14 00:38:05;;;;;;;8.85;2.83;;;13.90;99.90;;;;;;5016990;28;20088;-81
2022/07/14 00:40:31;;;;;;;6.65;2.78;;;13.90;99.90;;;;;;5043984;28;20107;-80
2022/07/14 00:42:56;;;;;;;8.52;2.97;;;14.00;99.90;;;;;;5028479;28;20041;-80
2022/07/14 00:45:24;;;;;;;9.63;2.90;;;14.00;99.90;;;;;;5036647;28;20102;-80
2022/07/14 00:47:50;;;;;;;14.55;3.90;;;13.90;99.90;;;;;;5021404;28;20041;-80
2022/07/14 00:50:18;;;;;;;7.97;2.88;;;13.90;99.90;;;;;;5030395;28;20040;-80
2022/07/14 00:52:45;;;;;;;7.65;3.00;;;13.90;99.90;;;;;;5033324;28;20116;-80
2022/07/14 00:55:12;;;;;;;9.18;3.33;;;13.90;99.90;;;;;;5004056;28;20219;-81
2022/07/14 00:57:38;;;;;;;10.63;2.92;;;13.90;99.90;;;;;;5025513;28;20045;-81
2022/07/14 01:00:07;;;;;;;8.90;2.60;;;13.90;99.90;;;;;;5047287;28;20051;-81
2022/07/14 01:02:32;;;;;;;11.10;2.90;;;13.80;99.90;;;;;;5043096;28;20556;-81
2022/07/14 01:04:58;;;;;;;9.63;2.97;;;13.80;99.90;;;;;;5021556;28;20183;-81
2022/07/14 01:07:24;;;;;;;7.47;2.72;;;13.80;99.90;;;;;;5023793;28;20078;-81
2022/07/14 01:09:50;;;;;;;9.98;3.10;;;13.70;99.90;;;;;;5032096;28;20126;-81
2022/07/14 01:12:16;;;;;;;7.93;2.60;;;13.80;99.90;;;;;;5025277;28;20045;-81
2022/07/14 01:14:42;;;;;;;10.20;3.58;;;13.70;99.90;;;;;;5056445;28;20185;-80
2022/07/14 01:17:09;;;;;;;7.65;2.60;;;13.70;99.90;;;;;;5023992;28;20424;-80
2022/07/14 01:19:35;;;;;;;7.07;2.58;;;13.70;99.90;;;;;;5009498;28;20143;-81
2022/07/14 01:22:02;;;;;;;8.13;2.85;;;13.70;99.90;;;;;;5043012;28;20048;-80
2022/07/14 01:24:28;;;;;;;8.23;2.90;;;13.70;99.90;;;;;;5040037;28;20060;-80
2022/07/14 01:26:54;;;;;;;8.18;2.92;;;13.60;99.90;;;;;;5032660;28;20040;-81
2022/07/14 01:29:20;;;;;;;7.78;3.15;;;13.60;99.90;;;;;;5048793;28;20361;-81
2022/07/14 01:31:46;;;;;;;8.48;2.80;;;13.60;99.90;;;;;;5016732;28;20047;-81
2022/07/14 01:34:12;;;;;;;10.57;3.13;;;13.50;99.90;;;;;;5032616;28;20033;-81
2022/07/14 01:36:38;;;;;;;8.83;2.80;;;13.50;99.90;;;;;;5037405;28;20496;-81
2022/07/14 01:39:05;;;;;;;8.30;2.83;;;13.40;99.90;;;;;;5039102;28;20032;-81
2022/07/14 01:41:31;;;;;;;10.43;3.10;;;13.40;99.90;;;;;;5038923;28;20668;-81
2022/07/14 01:43:57;;;;;;;9.65;2.78;;;13.40;99.90;;;;;;5035518;28;20361;-81
2022/07/14 01:46:23;;;;;;;5.60;2.97;;;13.40;99.90;;;;;;5029151;28;20048;-81
2022/07/14 01:48:49;;;;;;;11.60;3.17;;;13.40;99.90;;;;;;5038516;28;20040;-81
2022/07/14 01:51:15;;;;;;;5.03;2.60;;;13.30;99.90;;;;;;5035544;28;20459;-81
2022/07/14 01:53:43;;;;;;;6.50;3.20;;;13.30;99.90;;;;;;5031413;28;20037;-81
2022/07/14 01:56:10;;;;;;;10.87;2.93;;;13.20;99.90;;;;;;5053163;28;20040;-81
2022/07/14 01:58:37;;;;;;;11.17;2.63;;;13.20;99.90;;;;;;5054015;28;20040;-81
2022/07/14 02:03:48;;;;;;;8.57;2.70;;;13.20;99.90;;;;;;5043393;28;20044;-81
2022/07/14 02:06:13;;;;;;;10.10;2.83;;;13.10;99.90;;;;;;5002540;28;20384;-81
2022/07/14 02:08:40;;;;;;;9.80;2.90;;;13.10;99.90;;;;;;5038897;28;20052;-81
2022/07/14 02:13:50;;;;;;;8.37;2.20;;;13.00;99.90;;;;;;5036218;28;20041;-81
2022/07/14 02:16:15;;;;;;;5.40;2.20;;;12.90;99.90;;;;;;5041606;28;20041;-81
2022/07/14 02:18:42;;;;;;;7.30;2.40;;;12.90;99.90;;;;;;5028986;28;20098;-82
2022/07/14 02:21:07;;;;;;;5.53;2.20;;;12.80;99.90;;;;;;5032031;28;20064;-81
2022/07/14 02:23:33;;;;;;;5.63;2.40;;;12.70;99.90;;;;;;5037240;28;20190;-81
2022/07/14 02:25:59;;;;;;;6.07;2.50;;;12.70;99.90;;;;;;5052794;28;20040;-81
2022/07/14 02:28:25;;;;;;;6.03;2.30;;;12.70;99.90;;;;;;5015211;28;20551;-81
2022/07/14 02:30:51;;;;;;;6.43;2.50;;;12.60;99.90;;;;;;5036951;28;20542;-81
2022/07/14 02:33:17;;;;;;;8.90;2.50;;;12.60;99.90;;;;;;5033663;28;20044;-81
2022/07/14 02:35:43;;;;;;;8.77;2.87;;;12.60;99.90;;;;;;5021098;28;20051;-81
2022/07/14 02:38:08;;;;;;;12.27;3.03;;;12.60;99.90;;;;;;5017503;28;20037;-81
2022/07/14 02:40:34;;;;;;;8.40;3.10;;;12.50;99.90;;;;;;5031432;28;20457;-81
2022/07/14 02:43:01;;;;;;;7.30;2.47;;;12.50;99.90;;;;;;5044203;28;20427;-81
2022/07/14 02:45:26;;;;;;;7.77;2.83;;;12.50;99.90;;;;;;5003016;28;20041;-81
2022/07/14 02:47:52;;;;;;;9.30;2.70;;;12.40;99.90;;;;;;5013519;28;20048;-81
2022/07/14 02:50:18;;;;;;;5.23;2.40;;;12.40;99.90;;;;;;5038262;28;20441;-81
2022/07/14 02:52:44;;;;;;;5.70;2.63;;;12.40;99.90;;;;;;5028855;28;20044;-81
2022/07/14 02:55:09;;;;;;;5.37;2.40;;;12.30;99.90;;;;;;5015490;28;20048;-81
2022/07/14 02:57:35;;;;;;;4.33;2.70;;;12.30;99.90;;;;;;5055089;28;20040;-81
2022/07/14 03:00:01;;;;;;;8.30;3.10;;;12.30;99.90;;;;;;5012149;28;20435;-81
2022/07/14 03:02:27;;;;;;;7.27;3.00;;;12.20;99.90;;;;;;5043466;28;20036;-81
2022/07/14 03:04:53;;;;;;;7.03;2.80;;;12.20;99.90;;;;;;5026510;28;20048;-81
2022/07/14 03:07:18;;;;;;;6.13;2.70;;;12.10;99.90;;;;;;5051358;28;20040;-81
2022/07/14 03:09:44;;;;;;;10.30;2.80;;;12.10;99.90;;;;;;5018723;28;20081;-81
2022/07/14 03:12:10;;;;;;;5.37;2.80;;;12.10;99.90;;;;;;5009570;28;20044;-80
2022/07/14 03:14:35;;;;;;;6.23;2.93;;;12.20;99.90;;;;;;5024202;28;20518;-81
2022/07/14 03:17:01;;;;;;;5.63;2.60;;;12.10;99.90;;;;;;5013671;28;20078;-81
2022/07/14 03:19:27;;;;;;;7.67;2.70;;;12.10;99.90;;;;;;5025883;28;20447;-81
2022/07/14 03:21:53;;;;;;;7.73;3.00;;;12.00;99.90;;;;;;5036559;28;20061;-80
2022/07/14 03:24:20;;;;;;;6.40;2.73;;;12.00;99.90;;;;;;5037609;28;20137;-81
2022/07/14 03:26:47;;;;;;;7.43;3.07;;;12.10;99.90;;;;;;5047174;28;20033;-81
2022/07/14 03:29:13;;;;;;;8.90;2.93;;;12.10;99.90;;;;;;5052054;28;20047;-80
2022/07/14 03:31:39;;;;;;;8.40;3.03;;;12.10;99.90;;;;;;5036374;28;20086;-81
2022/07/14 03:34:05;;;;;;;7.03;3.10;;;12.10;99.90;;;;;;5036498;28;20064;-81
2022/07/14 03:36:31;;;;;;;7.20;2.67;;;12.10;99.90;;;;;;5030189;28;20043;-81
2022/07/14 03:38:57;;;;;;;4.67;2.97;;;12.00;99.90;;;;;;5044325;28;20043;-81
2022/07/14 03:41:23;;;;;;;6.80;3.03;;;12.00;99.90;;;;;;5043069;28;20045;-81
2022/07/14 03:43:49;;;;;;;10.80;3.47;;;12.00;99.90;;;;;;5033818;28;20029;-81
2022/07/14 03:46:15;;;;;;;8.77;3.20;;;12.10;99.90;;;;;;5020462;28;20040;-80
2022/07/14 03:48:40;;;;;;;8.37;3.30;;;12.00;99.90;;;;;;5029712;28;20033;-81
2022/07/14 03:51:07;;;;;;;7.63;3.23;;;12.10;99.90;;;;;;5039722;28;20115;-82
2022/07/14 03:53:33;;;;;;;8.13;3.40;;;12.10;99.90;;;;;;5054809;28;20059;-81
2022/07/14 03:56:00;;;;;;;6.73;3.50;;;12.10;99.90;;;;;;5035261;28;20053;-81
2022/07/14 03:58:26;;;;;;;6.57;3.20;;;12.10;99.90;;;;;;5040853;28;20041;-80
2022/07/14 04:00:52;;;;;;;10.13;3.47;;;12.00;99.90;;;;;;5017272;28;20406;-81
2022/07/14 04:03:18;;;;;;;7.67;3.50;;;12.00;99.90;;;;;;5008900;28;20045;-81
2022/07/14 04:05:45;;;;;;;9.30;3.63;;;12.10;99.90;;;;;;5023595;28;20127;-81
2022/07/14 04:08:12;;;;;;;7.50;3.63;;;12.00;99.90;;;;;;5060752;28;20079;-81
2022/07/14 04:10:37;;;;;;;7.63;3.07;;;12.10;99.90;;;;;;5034814;28;20032;-81
2022/07/14 04:13:03;;;;;;;8.03;3.40;;;12.10;99.90;;;;;;5044780;28;20059;-82
2022/07/14 04:15:30;;;;;;;10.70;3.53;;;12.10;99.90;;;;;;5052903;28;20483;-81
2022/07/14 04:17:57;;;;;;;6.10;3.40;;;12.10;99.90;;;;;;5017816;28;20419;-82
2022/07/14 04:20:23;;;;;;;8.17;3.43;;;12.10;99.90;;;;;;5025180;28;20066;-82
2022/07/14 04:22:50;;;;;;;5.37;3.67;;;12.10;99.90;;;;;;5024619;28;20040;-81
2022/07/14 04:25:16;;;;;;;12.57;3.63;;;12.10;99.90;;;;;;5050524;28;20051;-81
2022/07/14 04:27:42;;;;;;;6.60;3.53;;;12.20;99.90;;;;;;5041936;28;20041;-81
2022/07/14 04:30:10;;;;;;;7.57;3.57;;;12.10;99.90;;;;;;5045731;28;20044;-81
2022/07/14 04:32:36;;;;;;;8.53;3.40;;;12.20;99.90;;;;;;5006202;28;20047;-81
2022/07/14 04:35:03;;;;;;;5.17;3.10;;;12.20;99.90;;;;;;5050579;28;20404;-81
2022/07/14 04:37:29;;;;;;;6.97;3.33;;;12.30;99.90;;;;;;5039384;28;20091;-81
2022/07/14 04:39:55;;;;;;;6.67;3.70;;;12.40;99.90;;;;;;5044015;28;20470;-81
2022/07/14 04:42:22;;;;;;;6.90;3.47;;;12.40;99.90;;;;;;5038887;28;20044;-81
2022/07/14 04:44:48;;;;;;;6.33;3.53;;;12.40;99.90;;;;;;5033370;28;20154;-81
2022/07/14 04:47:14;;;;;;;7.67;3.83;;;12.50;99.90;;;;;;5025744;28;20076;-81
2022/07/14 04:52:24;;;;;;;12.63;4.60;;;12.60;99.90;;;;;;5025630;28;20044;-81
2022/07/14 04:54:50;;;;;;;6.10;4.10;;;12.60;99.90;;;;;;5035434;28;20036;-81
2022/07/14 04:57:16;;;;;;;10.07;4.87;;;12.70;99.90;;;;;;5034024;28;20040;-81
2022/07/14 04:59:42;;;;;;;9.07;4.47;;;12.80;99.90;;;;;;5024969;28;20458;-81
2022/07/14 05:02:08;;;;;;;8.90;4.20;;;12.90;99.90;;;;;;5043310;28;20363;-81
2022/07/14 05:04:34;;;;;;;10.67;4.70;;;12.90;99.90;;;;;;5026299;28;20556;-81
2022/07/14 05:07:00;;;;;;;11.80;4.70;;;13.00;99.90;;;;;;5036838;28;20037;-81
2022/07/14 05:09:26;;;;;;;10.90;4.37;;;13.10;99.90;;;;;;5022707;28;20036;-81
2022/07/14 05:11:53;;;;;;;11.20;4.60;;;13.20;99.90;;;;;;5033699;28;20116;-82
2022/07/14 05:14:18;;;;;;;8.73;4.20;;;13.20;99.90;;;;;;5034613;28;20518;-81
2022/07/14 05:16:45;;;;;;;8.73;4.30;;;13.30;99.90;;;;;;5010316;28;20037;-81
2022/07/14 05:19:11;;;;;;;5.73;3.80;;;13.30;99.90;;;;;;5030886;28;20044;-81
2022/07/14 05:21:37;;;;;;;10.40;3.90;;;13.40;99.90;;;;;;5025804;28;20089;-82
2022/07/14 05:24:03;;;;;;;10.17;3.40;;;13.50;99.90;;;;;;5025334;28;20049;-81
2022/07/14 05:26:29;;;;;;;8.90;3.77;;;13.50;99.90;;;;;;5015133;28;20037;-81
2022/07/14 05:28:55;;;;;;;9.40;3.80;;;13.60;99.90;;;;;;5030882;28;20446;-82
2022/07/14 05:31:20;;;;;;;5.40;2.93;;;13.70;99.90;;;;;;5015853;28;20040;-82
2022/07/14 05:33:48;;;;;;;9.03;3.30;;;13.80;99.90;;;;;;5039515;28;20036;-82
2022/07/14 05:36:13;;;;;;;8.40;2.80;;;13.90;99.90;;;;;;5016007;28;20410;-81
2022/07/14 05:38:39;;;;;;;6.60;2.80;;;13.90;99.90;;;;;;5032585;28;20529;-81
2022/07/14 05:41:05;;;;;;;6.87;2.70;;;14.00;99.90;;;;;;5028582;28;20156;-81
2022/07/14 05:43:31;;;;;;;7.47;2.57;;;14.10;99.90;;;;;;5008855;28;20485;-81
2022/07/14 05:46:08;;;;;;;7.57;2.67;;;14.20;99.90;;;;;;5018248;28;20126;-81
2022/07/14 05:48:34;;;;;;;7.90;3.37;;;14.30;99.90;;;;;;5023487;28;20080;-82
2022/07/14 05:51:20;;;;;;;7.47;2.27;;;14.50;99.90;;;;;;5034810;28;20033;-81
2022/07/14 05:53:47;;;;;;;6.50;2.50;;;14.60;99.90;;;;;;5019729;28;20040;-81
2022/07/14 05:56:13;;;;;;;5.17;2.07;;;14.60;99.90;;;;;;5043277;28;20521;-81
2022/07/14 05:58:40;;;;;;;6.30;2.10;;;14.70;99.90;;;;;;5001735;28;20033;-81
2022/07/14 06:01:07;;;;;;;7.57;2.58;;;14.80;99.90;;;;;;5046304;28;20091;-82
2022/07/14 06:03:33;;;;;;;5.07;2.30;;;14.80;99.90;;;;;;5021777;28;20444;-81
2022/07/14 06:06:01;;;;;;;5.07;2.00;;;14.90;99.90;;;;;;5031083;28;20048;-82
2022/07/14 06:08:27;;;;;;;4.55;2.10;;;15.10;99.90;;;;;;5025549;28;20067;-83
2022/07/14 06:10:55;;;;;;;4.53;2.00;;;15.30;99.90;;;;;;5019637;28;20045;-82
2022/07/14 06:13:23;;;;;;;6.78;1.88;;;15.50;99.90;;;;;;5023857;28;20046;-82
2022/07/14 06:15:48;;;;;;;7.00;2.17;;;15.70;99.90;;;;;;5015500;28;20053;-82
2022/07/14 06:18:14;;;;;;;7.97;1.83;;;15.90;99.90;;;;;;5032142;28;20038;-83
2022/07/14 06:20:41;;;;;;;7.85;2.22;;;16.00;99.90;;;;;;5039306;28;20085;-82
2022/07/14 06:23:09;;;;;;;4.50;1.40;;;16.10;99.90;;;;;;5044927;28;20045;-82
2022/07/14 06:25:37;;;;;;;4.05;1.67;;;16.10;99.90;;;;;;5031012;28;20043;-82
2022/07/14 06:28:03;;;;;;;7.10;1.52;;;16.20;99.90;;;;;;5057697;28;20031;-80
2022/07/14 06:30:28;;;;;;;5.93;1.45;;;16.30;99.90;;;;;;5020346;28;20120;-81
2022/07/14 06:32:54;;;;;;;4.80;1.58;;;16.40;99.90;;;;;;5019993;28;20133;-81
2022/07/14 06:35:20;;;;;;;7.63;1.95;;;16.60;99.90;;;;;;5041588;28;20045;-82
2022/07/14 06:37:45;;;;;;;6.45;1.67;;;16.70;99.90;;;;;;5018629;28;20064;-82
2022/07/14 06:40:11;;;;;;;2.97;1.58;;;16.80;99.90;;;;;;5032113;28;20436;-82
2022/07/14 06:42:37;;;;;;;5.78;1.65;;;17.00;99.90;;;;;;5033922;28;20068;-83
2022/07/14 06:45:03;;;;;;;7.95;1.67;;;17.20;99.90;;;;;;5046183;28;20049;-82
2022/07/14 06:47:32;;;;;;;4.47;1.30;;;17.30;99.90;;;;;;5035051;28;20047;-82
2022/07/14 06:49:59;;;;;;;5.47;1.40;;;17.30;99.90;;;;;;5024924;28;20473;-83
2022/07/14 06:52:26;;;;;;;5.25;2.03;;;17.30;99.90;;;;;;5050789;28;20163;-81
2022/07/14 06:54:52;;;;;;;4.68;1.45;;;17.30;99.90;;;;;;5037214;28;20083;-82
2022/07/14 06:57:18;;;;;;;3.72;1.13;;;17.30;99.90;;;;;;5040846;28;20052;-83
2022/07/14 06:59:45;;;;;;;4.28;1.80;;;17.20;99.90;;;;;;5039525;28;20033;-84
2022/07/14 07:02:11;;;;;;;5.18;1.10;;;17.20;99.90;;;;;;5034515;28;20033;-83
2022/07/14 07:04:36;;;;;;;4.32;1.10;;;17.10;99.90;;;;;;5031754;28;20774;-84
2022/07/14 07:07:03;;;;;;;4.95;1.10;;;17.10;99.90;;;;;;5021950;28;20451;-84
2022/07/14 07:09:29;;;;;;;7.90;1.50;;;17.10;99.90;;;;;;5051228;28;20068;-84
2022/07/14 07:11:54;;;;;;;5.10;1.27;;;17.30;99.90;;;;;;5031689;28;20521;-84
2022/07/14 07:14:20;;;;;;;2.35;1.55;;;17.50;99.90;;;;;;5043249;28;20111;-83
2022/07/14 07:16:47;;;;;;;3.63;1.33;;;17.50;99.90;;;;;;5035963;28;20124;-82
2022/07/14 07:19:13;;;;;;;5.53;1.95;;;17.40;99.90;;;;;;5034696;28;20124;-84
2022/07/14 07:21:39;;;;;;;7.20;1.17;;;17.40;99.90;;;;;;5013405;28;20053;-83
2022/07/14 07:24:05;;;;;;;6.30;1.30;;;17.30;99.90;;;;;;5034248;28;20049;-83
2022/07/14 07:26:35;;;;;;;3.10;1.02;;;17.20;99.90;;;;;;5033897;28;20045;-84
2022/07/14 07:29:00;;;;;;;5.80;1.42;;;17.20;99.90;;;;;;5050977;28;20518;-83
2022/07/14 07:31:26;;;;;;;6.40;1.63;;;17.10;99.90;;;;;;5052378;28;20128;-83
2022/07/14 07:33:52;;;;;;;3.78;0.98;;;17.10;99.90;;;;;;5034795;28;20116;-83
2022/07/14 07:36:19;;;;;;;5.63;1.20;;;17.20;99.90;;;;;;5048079;28;20056;-83
2022/07/14 07:38:45;;;;;;;4.13;0.98;;;17.40;99.90;;;;;;5028208;28;20045;-83
2022/07/14 07:41:11;;;;;;;4.32;1.10;;;17.40;99.90;;;;;;5050240;28;20127;-83
2022/07/14 07:43:37;;;;;;;4.30;1.00;;;17.40;99.90;;;;;;5031142;28;20126;-83
2022/07/14 07:46:05;;;;;;;4.57;1.10;;;17.40;99.90;;;;;;5001980;28;20068;-86
2022/07/14 07:48:32;;;;;;;3.88;1.05;;;17.50;99.90;;;;;;5021544;28;20052;-86
2022/07/14 07:50:58;;;;;;;2.85;1.00;;;17.40;99.90;;;;;;5007431;28;20504;-83
2022/07/14 07:53:24;;;;;;;5.18;0.90;;;17.30;99.90;;;;;;5049598;28;20037;-83
2022/07/14 07:55:50;;;;;;;5.40;1.58;;;17.10;99.90;;;;;;5010593;28;20037;-84
2022/07/14 07:58:16;;;;;;;4.03;1.30;;;17.20;99.90;;;;;;5004819;28;20886;-84
2022/07/14 08:00:41;;;;;;;4.47;1.10;;;17.50;99.90;;;;;;5016826;28;20123;-84
2022/07/14 08:03:07;;;;;;;4.22;1.20;;;17.60;99.90;;;;;;5017779;28;20091;-83
2022/07/14 08:05:33;;;;;;;3.97;1.13;;;17.80;99.90;;;;;;5006077;28;20052;-85
2022/07/14 08:07:59;;;;;;;4.28;1.00;;;18.00;99.90;;;;;;5008290;28;20037;-84
2022/07/14 08:10:25;;;;;;;3.65;1.08;;;18.30;99.90;;;;;;5025662;28;20130;-83
2022/07/14 08:12:52;;;;;;;2.25;1.20;;;18.50;99.90;;;;;;5023358;28;20037;-84
2022/07/14 08:15:18;;;;;;;4.32;1.17;;;18.70;99.90;;;;;;5042794;28;20049;-86
2022/07/14 08:17:44;;;;;;;3.20;0.85;;;18.60;99.90;;;;;;5008782;28;20128;-82
2022/07/14 08:20:10;;;;;;;2.35;0.93;;;18.40;99.90;;;;;;5033393;28;20128;-84
2022/07/14 08:22:37;;;;;;;2.88;0.70;;;18.50;99.90;;;;;;5026673;28;20049;-84
2022/07/14 08:25:06;;;;;;;1.95;0.88;;;18.70;99.90;;;;;;5018117;28;20053;-84
2022/07/14 08:27:32;;;;;;;2.08;0.80;;;18.90;99.90;;;;;;5026797;28;20037;-87
2022/07/14 08:29:58;;;;;;;4.18;0.77;;;19.20;99.90;;;;;;5019012;28;20517;-83
2022/07/14 08:32:36;;;;;;;2.38;0.90;;;19.40;99.90;;;;;;5021466;28;20120;-85
2022/07/14 08:35:04;;;;;;;2.55;1.02;;;19.40;99.90;;;;;;5044588;28;20045;-83
2022/07/14 08:37:30;;;;;;;3.80;0.98;;;19.30;99.90;;;;;;5047149;28;20535;-84
2022/07/14 08:39:56;;;;;;;4.55;0.90;;;19.20;99.90;;;;;;5009892;28;20051;-83
2022/07/14 08:42:22;;;;;;;2.30;0.95;;;19.00;99.90;;;;;;5038508;28;20041;-83
2022/07/14 08:44:48;;;;;;;3.90;0.73;;;18.90;99.90;;;;;;5043979;28;20135;-84
2022/07/14 08:47:15;;;;;;;4.38;0.98;;;18.90;99.90;;;;;;5019706;28;20072;-85
2022/07/14 08:49:43;;;;;;;3.88;1.58;;;19.20;99.90;;;;;;5024768;28;20052;-85
2022/07/14 08:52:09;;;;;;;2.35;0.68;;;19.50;99.90;;;;;;5028423;28;20504;-86
2022/07/14 08:54:36;;;;;;;3.63;0.60;;;19.60;99.90;;;;;;5028050;28;20037;-84
2022/07/14 08:57:02;;;;;;;4.15;1.13;;;19.80;99.90;;;;;;5021124;28;20041;-84
2022/07/14 08:59:28;;;;;;;4.70;1.35;;;20.00;99.90;;;;;;5053590;28;20436;-85
2022/07/14 09:01:56;;;;;;;3.40;0.90;;;20.10;99.90;;;;;;5037433;28;20044;-88
2022/07/14 09:04:21;;;;;;;1.88;0.70;;;20.10;99.90;;;;;;5053547;28;20040;-83
2022/07/14 09:06:50;;;;;;;3.35;0.75;;;19.90;99.90;;;;;;5039063;28;20055;-84
2022/07/14 09:09:18;;;;;;;3.40;0.73;;;19.90;99.90;;;;;;5039674;28;20041;-84
2022/07/14 09:11:55;;;;;;;1.52;0.63;;;19.80;99.90;;;;;;5023378;28;20041;-85
2022/07/14 09:14:21;;;;;;;1.85;0.85;;;19.90;99.90;;;;;;5039432;28;20033;-85
2022/07/14 09:16:47;;;;;;;3.92;0.98;;;20.00;99.90;;;;;;5011951;28;20060;-85
2022/07/14 09:19:15;;;;;;;4.13;0.90;;;20.10;99.90;;;;;;5017424;28;20045;-84
2022/07/14 09:21:46;;;;;;;5.80;0.93;;;20.10;99.90;;;;;;5034049;28;20081;-84
2022/07/14 09:24:14;;;;;;;1.25;0.60;;;20.20;99.90;;;;;;5045807;28;20040;-84
2022/07/14 09:26:53;;;;;;;2.83;1.15;;;20.10;99.90;;;;;;5018210;28;20056;-83
2022/07/14 09:29:26;;;;;;;2.20;0.77;;;20.10;99.70;;;;;;5049552;28;20072;-84
2022/07/14 09:31:52;;;;;;;3.28;1.33;;;20.00;98.40;;;;;;5017343;28;20045;-84
2022/07/14 09:34:32;;;;;;;3.95;0.70;;;20.00;99.90;;;;;;5048358;28;20037;-83
2022/07/14 09:37:18;;;;;;;3.40;1.00;;;20.00;99.90;;;;;;5044068;28;20116;-84
2022/07/14 09:40:11;;;;;;;2.42;0.90;;;19.90;97.70;;;;;;5040424;28;20037;-84
2022/07/14 09:42:57;;;;;;;3.35;1.23;;;19.90;99.90;;;;;;5025736;28;20044;-84
2022/07/14 09:45:32;;;;;;;3.67;1.00;;;20.00;99.90;;;;;;5041584;28;20465;-84
2022/07/14 09:47:59;;;;;;;4.15;0.90;;;19.90;99.60;;;;;;5021384;28;20425;-83
2022/07/14 09:50:55;;;;;;;1.23;0.70;;;19.90;99.90;;;;;;5041679;28;20043;-83
2022/07/14 09:53:47;;;;;;;1.65;0.80;;;19.90;99.90;;;;;;5016792;28;20042;-84
2022/07/14 09:56:12;;;;;;;;;;;20.00;99.90;;;;;;5024520;28;20048;-86
2022/07/14 09:58:45;;;;;;;3.78;0.95;;;20.10;99.90;;;;;;5039383;28;19934;-84
2022/07/14 10:01:15;;;;;;;3.00;1.20;;;20.20;99.90;;;;;;5026836;28;20091;-83
2022/07/14 10:03:45;;;;;;;2.95;0.77;;;20.20;99.90;;;;;;5008055;28;20489;-83
2022/07/14 10:06:11;;;;;;;2.30;0.85;;;20.10;99.90;;;;;;5022859;28;20041;-84
2022/07/14 10:08:40;;;;;;;2.35;0.80;;;19.90;99.00;;;;;;5016310;28;20038;-83
2022/07/14 10:11:06;;;;;;;3.40;1.20;;;19.80;98.80;;;;;;5019214;28;20429;-83
2022/07/14 10:13:33;;;;;;;4.20;0.85;;;19.70;98.10;;;;;;5018498;28;20227;-84
2022/07/14 10:15:59;;;;;;;3.08;1.00;;;19.70;99.50;;;;;;5043951;28;20041;-85
2022/07/14 10:18:26;;;;;;;2.60;0.90;;;19.70;99.00;;;;;;5011211;28;20045;-82
2022/07/14 10:20:56;;;;;;;2.83;0.80;;;19.70;99.40;;;;;;5041962;28;20140;-83
2022/07/14 10:23:23;;;;;;;3.83;0.93;;;19.70;99.10;;;;;;5048792;28;20056;-83
2022/07/14 10:25:52;;;;;;;1.52;0.90;;;19.70;99.10;;;;;;5016076;28;20077;-83
2022/07/14 10:28:19;;;;;;;4.60;1.05;;;19.70;99.90;;;;;;5032781;28;20114;-84
2022/07/14 10:31:09;;;;;;;2.78;0.90;;;19.80;99.90;;;;;;5027874;28;20045;-83
2022/07/14 10:33:52;;;;;;;2.40;0.98;;;19.90;99.90;;;;;;5045658;28;20512;-83
2022/07/14 10:36:19;;;;;;;3.58;1.20;;;19.90;99.90;;;;;;5037209;28;20099;-82
2022/07/14 10:38:51;;;;;;;1.70;0.90;;;20.00;99.90;;;;;;5025355;28;20045;-83
2022/07/14 10:41:41;;;;;;;2.90;1.20;;;20.00;99.90;;;;;;5020512;28;20049;-85
2022/07/14 10:44:17;;;;;;;2.55;1.05;;;20.10;99.40;;;;;;5024054;28;20046;-84
2022/07/14 10:46:45;;;;;;;2.65;0.77;;;20.10;97.20;;;;;;5033586;28;20041;-85
2022/07/14 10:49:13;;;;;;;3.00;0.98;;;20.20;98.30;;;;;;5029000;28;20396;-85
2022/07/14 10:51:49;;;;;;;4.93;0.85;;;20.30;96.60;;;;;;5035874;28;20059;-83
2022/07/14 10:54:15;;;;;;;2.47;1.05;;;20.40;95.60;;;;;;5035028;28;20041;-84
2022/07/14 10:56:45;;;;;;;3.75;0.90;;;20.40;95.50;;;;;;5051163;28;20118;-86
2022/07/14 10:59:26;;;;;;;2.65;1.00;;;20.30;95.80;;;;;;5034016;28;20063;-84
2022/07/14 11:02:11;;;;;;;2.20;0.80;;;20.30;95.60;;;;;;5035239;28;20500;-87
2022/07/14 11:07:51;;;;;;;2.42;1.00;;;20.40;95.30;;;;;;5050804;28;20041;-84
2022/07/14 11:10:20;;;;;;;2.35;0.90;;;20.20;92.90;;;;;;5047640;28;20107;-85
2022/07/14 11:13:04;;;;;;;3.88;0.77;;;20.10;94.90;;;;;;5033524;28;20044;-85
2022/07/14 11:15:43;;;;;;;1.00;0.50;;;20.00;94.70;;;;;;5033698;28;20051;-83
2022/07/14 11:18:28;;;;;;;1.73;0.98;;;19.80;94.80;;;;;;5038036;28;20135;-86
2022/07/14 11:21:00;;;;;;;1.52;0.88;;;19.90;96.20;;;;;;5014513;28;20057;-85
2022/07/14 11:23:34;;;;;;;3.80;1.52;;;20.00;98.60;;;;;;5029569;28;20041;-83
2022/07/14 11:26:27;;;;;;;2.65;1.00;;;20.00;98.50;;;;;;5022150;28;20128;-84
2022/07/14 11:28:55;;;;;;;0.77;0.65;;;20.00;97.30;;;;;;5025735;28;20048;-83
2022/07/14 11:31:22;;;;;;;2.90;0.88;;;19.90;96.30;;;;;;5003138;28;20052;-84
2022/07/14 11:36:37;;;;;;;2.55;1.00;;;20.00;96.30;;;;;;5037773;28;20048;-84
2022/07/14 11:39:15;;;;;;;2.25;0.80;;;20.10;96.50;;;;;;5053066;28;20049;-84
2022/07/14 11:42:06;;;;;;;1.55;0.63;;;20.10;95.90;;;;;;5036241;28;20527;-84
2022/07/14 11:44:35;;;;;;;1.45;0.63;;;20.20;94.40;;;;;;5041929;28;20045;-84
2022/07/14 11:47:04;;;;;;;2.58;0.80;;;20.10;94.70;;;;;;5036906;28;20436;-83
2022/07/14 11:49:31;;;;;;;2.45;0.90;;;20.10;95.40;;;;;;5033759;28;20456;-83
2022/07/14 11:51:58;;;;;;;2.78;0.82;;;20.00;95.70;;;;;;5047821;28;20443;-83
2022/07/14 11:54:25;;;;;;;3.15;0.88;;;20.00;96.70;;;;;;5009381;28;20444;-84
2022/07/14 11:57:09;;;;;;;1.77;0.90;;;19.90;96.80;;;;;;5024348;28;20037;-84
2022/07/14 11:59:41;;;;;;;4.43;0.93;;;19.90;96.80;;;;;;5044404;28;20037;-83
2022/07/14 12:02:15;;;;;;;2.15;0.90;;;19.80;97.10;;;;;;5028672;28;20037;-84
2022/07/14 12:04:52;;;;;;;1.23;0.90;;;19.70;96.70;;;;;;5024618;28;20782;-84
2022/07/14 12:07:19;;;;;;;1.67;0.98;;;19.70;97.30;;;;;;5036280;28;20055;-83
2022/07/14 12:09:46;;;;;;;1.65;0.73;;;20.00;97.60;;;;;;5010250;28;20107;-83
2022/07/14 12:12:12;;;;;;;3.45;0.93;;;20.00;96.70;;;;;;5013686;28;20041;-83
2022/07/14 12:14:49;;;;;;;5.50;1.00;;;19.90;96.00;;;;;;5013245;28;20044;-85
2022/07/14 12:17:16;;;;;;;2.20;0.93;;;19.80;95.30;;;;;;5032914;28;20071;-82
2022/07/14 12:19:43;;;;;;;2.58;1.02;;;19.90;95.60;;;;;;5019498;28;20033;-84
2022/07/14 12:22:09;;;;;;;2.42;1.10;;;20.30;96.00;;;;;;5017845;28;20508;-84
2022/07/14 12:24:35;;;;;;;4.05;1.00;;;20.50;95.80;;;;;;5030207;28;20063;-82
2022/07/14 12:27:04;;;;;;;3.10;1.00;;;20.90;94.70;;;;;;5053760;28;20121;-83
2022/07/14 12:29:30;;;;;;;1.38;0.90;;;20.90;94.00;;;;;;5038375;28;20059;-83
2022/07/14 12:31:58;;;;;;;4.15;1.10;;;20.80;93.30;;;;;;5048768;28;20174;-83
2022/07/14 12:34:27;;;;;;;0.88;0.77;;;20.70;92.40;;;;;;5037159;28;20112;-84
2022/07/14 12:36:57;;;;;;;2.70;1.00;;;20.60;92.50;;;;;;5029348;28;20036;-85
2022/07/14 12:39:24;;;;;;;2.38;1.02;;;20.40;92.80;;;;;;5043716;28;20036;-82
2022/07/14 12:41:51;;;;;;;3.22;1.10;;;20.20;94.10;;;;;;5037054;28;20037;-83
2022/07/14 12:44:17;;;;;;;3.25;1.00;;;20.00;94.60;;;;;;5035789;28;20036;-82
2022/07/14 12:46:43;;;;;;;3.25;1.00;;;19.90;95.50;;;;;;5021946;28;20040;-81
2022/07/14 12:49:10;;;;;;;2.92;0.80;;;19.70;95.60;;;;;;5019058;28;20036;-82
2022/07/14 12:51:43;;;;;;;2.70;0.80;;;19.60;96.50;;;;;;5032312;28;20103;-85
2022/07/14 12:54:17;;;;;;;4.68;1.10;;;19.60;96.10;;;;;;5047880;28;20037;-83
2022/07/14 12:56:43;;;;;;;2.33;0.90;;;19.50;96.20;;;;;;5030113;28;20178;-82
2022/07/14 12:59:13;;;;;;;3.53;0.90;;;19.50;96.90;;;;;;5041262;28;20124;-81
2022/07/14 13:01:49;;;;;;;3.35;1.00;;;19.40;97.60;;;;;;5026191;28;20033;-83
2022/07/14 13:04:47;;;;;;;3.90;1.20;;;19.30;98.00;;;;;;5031912;28;20048;-82